Flight ASX205

  • Submitted By: Krzysztof H. Blaszkow
  • Departure Airport: Katowice Pyrzowice (EPKT)
  • Arrival Airport: Gdansk im. Lecha Walesy (EPGD)
  • Aircraft: ATR 72-500 (SP-RYD)
  • Flight Time: 01.53.20
  • Date Submitted: 11/29/2016
  • Status: Accepted
Flight Details
Gross Revenue:
(69 load / € 80.00 per unit
€ 5,520.00
Fuel Cost:
(1104.95 fuel used @ 0.45 / unit)
€ 497.23

Additional Log Information:

View Log

[21:40] - Flight 1 ATR 72-500 House Livery
[21:40] - Flight ASX205 is ready to depart EPKT with a final destination of EPGD.
[21:40] - Boarding
[21:41] - Beacon Light ON 6AGL
[21:42] - Logo Lights ON 6AGL
[21:43] - NAV1 - 114.80
[21:45] - COM1 - 122.80
[21:45] - Transponder - 2200
[21:57] - NAV2 - 112.00
[21:57] - Taxi Lights ON 6AGL
[21:57] - Navigation Lights ON 6AGL
[21:57] - Parking Brake Released
[21:57] - Pushing Back from the gate
[21:58] - Engine 1 Started
[21:59] - Engine 2 Started
[22:01] - Taxiing to Runway
[22:04] - Strobe Lights ON 6AGL
[22:04] - Taxi Lights OFF 6AGL
[22:04] - Landing Lights ON 6AGL
[22:04] - Flaps to position 1
[22:06] - Taking Off with 69 passengers on board
[22:06] - Take off at 121kts, with a pitch of 4deg and 4413lbs of fuel on board
[22:06] - Wind Heading 340 | Wind Speed 7kts | Temperature -2 deg C
[22:06] - METAR Departure: EPKT 282130Z 33003KT 310V020 9999 SCT014 M04/M06 Q1026

[22:07] - Flaps to position 0 at 1250ft and 132kts
[22:07] - Gear up at 328AGL
[22:07] - Climbing to TOC
[22:08] - NAV2 - 110.30
[22:12] - Landing Lights OFF 9656AGL
[22:13] - AutoPilot Engaged at 11785AGL
[22:17] - NAV1 - 116.10
[22:25] - TOC reached
[22:25] - Cruise started
[22:47] - TOD reached
[22:47] - Descending to destination
[23:13] - Overspeed! 257kts, 15571AGL
[23:14] - Overspeed corrected at 15111AGL
[23:14] - NAV1 - 110.30
[23:17] - Landing Lights ON 10751AGL
[23:21] - Landing Shortly
[23:25] - Flaps to position 1 at 2940ft and 165kts
[23:25] - Gear down at 2910AGL
[23:26] - AutoPilot Disengaged at 1693AGL
[23:29] - Landed at -185fpm. With 2074lbs of fuel onboard and a pitch angle of 3deg.
[23:29] - Wind Heading 298 | Wind Speed 11kts | Temperature 0 deg C
[23:29] - METAR Arrival: EPGD 282300Z 28013KT CAVOK 00/M04 Q1023 R11/290095

[23:29] - Flaps to position 0
[23:29] - Taxiing to Gate
[23:30] - Landing Lights OFF 6AGL
[23:30] - Taxi Lights ON 6AGL
[23:30] - Strobe Lights OFF 6AGL
[23:33] - Parking Brake Applied
[23:33] - Arrived safely at EPGD. We hope you enjoyed your flight!
[23:33] - Engine 1 Stopped
[23:33] - Engine 2 Stopped
[23:34] - Taxi Lights OFF 6AGL
[23:34] - Navigation Lights OFF 6AGL
[23:35] - Flight 1 ATR 72-500 House Livery
[23:35] - MaxSim Rate: 1x
[23:35] - SiouxAcars ver: 1.0.1.2

Route Map